Repülésmeteorológia

  • METAR LHSM 231115Z 34015KT 9000 -SHRA BKN013 BKN050 20/19 Q1012
  • METAR LHSM 231045Z 35012KT 7000 -SHRA SCT011TCU OVC040 20/18 Q1012
  • METAR LHSM 231015Z 34013KT 7000 -SHRA BKN011 SCT025TCU OVC070 19/18
  • METAR LHSM 230945Z 34015KT 6000 SHRA SCT016 SCT033TCU OVC083 19/17
  • METAR LHSM 230915Z 35012G23KT 9999 -SHRA SCT016 BKN056 19/17 Q1011

  • TAF LHSM 231115Z 2312/2321 36015G30KT 9999 -SHRA SCT010TCU OVC040
  • TAF LHSM 230815Z 2309/2318 36015G30KT 9999 SCT020 BKN050
  • TAF LHSM 230515Z 2306/2315 29004KT 9999 SCT040 OVC100
  • TAF LHSM 221115Z 2212/2221 VRB03KT 9999 BKN030
  • TAF LHSM 220815Z 2209/2218 VRB03KT 9999 SCT025 SCT080